Time;durP1;ratioP1;P1;durP2;ratioP2;P2;SDS_P1;SDS_P2;PMS_P1;PMS_P2;Temp;Humidity;BMP_temperature;BMP_pressure;BME280_temperature;BME280_humidity;BME280_pressure;Samples;Min_cycle;Max_cycle;Signal;HPM_P1;HPM_P2
2020/12/18 00:01:07;;;;;;;11.73;8.07;;;;;;;6.06;100.00;101797.19;4990560;28;20113;-86
2020/12/18 00:03:32;;;;;;;15.20;8.75;;;;;;;6.03;100.00;101800.91;4975622;28;20045;-88
2020/12/18 00:05:58;;;;;;;14.25;8.57;;;;;;;6.02;100.00;101796.56;4992123;28;20590;-87
2020/12/18 00:08:23;;;;;;;17.17;9.77;;;;;;;6.01;100.00;101794.88;4973959;28;20454;-87
2020/12/18 00:10:48;;;;;;;14.48;9.02;;;;;;;5.98;100.00;101813.72;4975147;28;20137;-86
2020/12/18 00:13:14;;;;;;;14.68;9.60;;;;;;;5.93;100.00;101807.88;5008464;28;20033;-85
2020/12/18 00:15:39;;;;;;;18.98;9.73;;;;;;;5.92;100.00;101802.63;4982657;28;20046;-86
2020/12/18 00:18:05;;;;;;;14.60;9.82;;;;;;;5.88;100.00;101805.50;4973993;28;20508;-88
2020/12/18 00:20:30;;;;;;;16.35;9.85;;;;;;;5.87;100.00;101805.63;5000363;28;20092;-86
2020/12/18 00:22:55;;;;;;;17.55;10.15;;;;;;;5.85;100.00;101804.88;4988684;28;20460;-87
2020/12/18 00:25:21;;;;;;;17.65;11.73;;;;;;;5.85;100.00;101799.56;4989752;28;20033;-87
2020/12/18 00:27:46;;;;;;;17.65;11.68;;;;;;;5.84;100.00;101795.16;4972208;28;20046;-88
2020/12/18 00:30:12;;;;;;;16.98;10.63;;;;;;;5.80;100.00;101799.88;5004863;28;20480;-87
2020/12/18 00:32:39;;;;;;;21.08;11.52;;;;;;;5.82;100.00;101799.78;4990332;28;20034;-85
2020/12/18 00:35:09;;;;;;;16.98;11.25;;;;;;;5.79;100.00;101792.00;5001421;28;20034;-86
2020/12/18 00:37:34;;;;;;;17.17;10.90;;;;;;;5.79;100.00;101797.31;4998421;28;20122;-84
2020/12/18 00:40:00;;;;;;;20.05;12.02;;;;;;;5.78;100.00;101798.25;4976542;28;20034;-85
2020/12/18 00:42:28;;;;;;;16.98;12.18;;;;;;;5.71;100.00;101791.69;4989971;28;20381;-86
2020/12/18 00:44:54;;;;;;;18.73;11.10;;;;;;;5.68;100.00;101800.75;5007606;28;20124;-85
2020/12/18 00:47:19;;;;;;;17.85;12.02;;;;;;;5.69;100.00;101794.44;4986362;28;20129;-87
2020/12/18 00:49:44;;;;;;;16.23;11.20;;;;;;;5.68;100.00;101790.09;5004809;28;20477;-86
2020/12/18 00:52:10;;;;;;;19.42;11.25;;;;;;;5.64;100.00;101788.63;5006928;28;20128;-86
2020/12/18 00:54:35;;;;;;;16.42;10.98;;;;;;;5.61;100.00;101795.00;5005853;28;20046;-87
2020/12/18 00:57:01;;;;;;;18.02;12.50;;;;;;;5.65;100.00;101791.16;4975663;28;20097;-85
2020/12/18 00:59:26;;;;;;;20.35;13.15;;;;;;;5.63;100.00;101793.06;4990963;28;20075;-86
2020/12/18 01:01:59;;;;;;;19.05;12.10;;;;;;;5.64;100.00;101799.25;4973697;28;20065;-86
2020/12/18 01:04:25;;;;;;;17.95;11.77;;;;;;;5.59;100.00;101802.22;4973791;28;20046;-87
2020/12/18 01:06:54;;;;;;;21.10;11.40;;;;;;;5.56;100.00;101791.81;5008221;28;20046;-87
2020/12/18 01:09:23;;;;;;;19.10;11.35;;;;;;;5.55;100.00;101792.78;4989586;28;20049;-87
2020/12/18 01:11:49;;;;;;;19.45;11.15;;;;;;;5.55;100.00;101784.78;4992208;28;20030;-87
2020/12/18 01:14:15;;;;;;;20.40;11.52;;;;;;;5.54;100.00;101788.38;4992218;28;20365;-87
2020/12/18 01:16:41;;;;;;;20.27;11.88;;;;;;;5.53;100.00;101792.03;4989563;28;20086;-86
2020/12/18 01:19:06;;;;;;;21.25;13.48;;;;;;;5.57;100.00;101782.84;4973125;28;20091;-86
2020/12/18 01:21:32;;;;;;;20.73;12.93;;;;;;;5.57;100.00;101777.53;4987171;28;20042;-86
2020/12/18 01:23:57;;;;;;;20.00;12.77;;;;;;;5.58;100.00;101783.69;4986859;28;20045;-89
2020/12/18 01:26:23;;;;;;;21.65;13.38;;;;;;;5.60;100.00;101787.94;4964753;28;20042;-87
2020/12/18 01:28:48;;;;;;;18.45;11.38;;;;;;;5.59;100.00;101786.25;4985775;28;20132;-88
2020/12/18 01:31:14;;;;;;;21.30;12.45;;;;;;;5.58;100.00;101792.56;4982715;28;20523;-88
2020/12/18 01:33:39;;;;;;;19.10;12.32;;;;;;;5.58;100.00;101792.56;4974925;28;20065;-84
2020/12/18 01:36:05;;;;;;;18.70;12.65;;;;;;;5.58;100.00;101795.22;5010923;28;20030;-88
2020/12/18 01:38:31;;;;;;;17.45;12.23;;;;;;;5.58;100.00;101795.22;4998061;28;20053;-88
2020/12/18 01:40:56;;;;;;;17.25;12.25;;;;;;;5.57;100.00;101804.16;4986751;28;20091;-86
2020/12/18 01:43:22;;;;;;;19.55;12.32;;;;;;;5.58;100.00;101795.22;4992077;28;20045;-88
2020/12/18 01:45:47;;;;;;;22.65;14.43;;;;;;;5.62;100.00;101806.50;4963986;28;20068;-89
2020/12/18 01:48:13;;;;;;;23.30;12.68;;;;;;;5.65;100.00;101801.81;4991542;28;20507;-87
2020/12/18 01:50:39;;;;;;;16.17;11.77;;;;;;;5.64;100.00;101800.13;4997462;28;20030;-89
2020/12/18 01:53:04;;;;;;;19.30;11.73;;;;;;;5.65;100.00;101811.59;4992766;28;20064;-85
2020/12/18 01:55:30;;;;;;;20.77;11.48;;;;;;;5.67;100.00;101812.38;4990155;28;20065;-87
2020/12/18 01:57:55;;;;;;;21.33;11.13;;;;;;;5.72;100.00;101806.69;4977892;28;20080;-86
2020/12/18 02:00:21;;;;;;;23.88;13.18;;;;;;;5.73;100.00;101803.94;5010901;28;20251;-85
2020/12/18 02:02:47;;;;;;;21.45;12.05;;;;;;;5.72;100.00;101806.69;5009623;28;20150;-87
2020/12/18 02:05:13;;;;;;;16.55;10.88;;;;;;;5.69;100.00;101801.59;4993354;28;20056;-86
2020/12/18 02:07:48;;;;;;;16.83;11.13;;;;;;;5.69;100.00;101804.25;4978078;28;20169;-85
2020/12/18 02:10:14;;;;;;;21.40;11.48;;;;;;;5.63;100.00;101803.72;5012107;28;20072;-85
2020/12/18 02:12:39;;;;;;;17.63;10.80;;;;;;;5.69;100.00;101804.25;5007364;28;20095;-86
2020/12/18 02:15:05;;;;;;;20.00;12.10;;;;;;;5.65;100.00;101799.13;4994865;28;20045;-87
2020/12/18 02:17:30;;;;;;;18.98;11.10;;;;;;;5.59;100.00;101802.22;4993621;28;20045;-89
2020/12/18 02:19:56;;;;;;;17.92;10.80;;;;;;;5.59;100.00;101807.56;4977592;28;20550;-88
2020/12/18 02:22:24;;;;;;;18.15;11.20;;;;;;;5.55;100.00;101794.56;4989718;28;20507;-88
2020/12/18 02:25:10;;;;;;;17.08;10.43;;;;;;;5.52;100.00;101794.78;4993748;28;20048;-86
2020/12/18 02:27:39;;;;;;;17.25;10.57;;;;;;;5.52;100.00;101792.97;5004900;28;20112;-89
2020/12/18 02:30:06;;;;;;;22.10;11.30;;;;;;;5.52;100.00;101794.78;4993943;28;20500;-86
2020/12/18 02:32:32;;;;;;;18.55;10.52;;;;;;;5.50;100.00;101800.22;4997343;28;20129;-87
2020/12/18 02:34:58;;;;;;;18.27;10.85;;;;;;;5.48;100.00;101798.63;4994614;28;20604;-86
2020/12/18 02:37:24;;;;;;;18.50;9.55;;;;;;;5.48;100.00;101796.81;4992164;28;20048;-86
2020/12/18 02:39:55;;;;;;;17.58;10.07;;;;;;;5.45;100.00;101796.19;4972510;28;20040;-86
2020/12/18 02:42:20;;;;;;;20.58;11.73;;;;;;;5.45;100.00;101786.38;4994226;28;20054;-89
2020/12/18 02:44:47;;;;;;;18.48;10.70;;;;;;;5.42;100.00;101783.94;4973028;28;20108;-86
2020/12/18 02:47:14;;;;;;;20.90;10.27;;;;;;;5.42;100.00;101789.25;4974544;28;20418;-85
2020/12/18 02:49:39;;;;;;;18.33;10.25;;;;;;;5.41;100.00;101780.41;5005284;28;20503;-85
2020/12/18 02:52:06;;;;;;;18.38;9.07;;;;;;;5.42;100.00;101783.94;4972471;28;20052;-88
2020/12/18 02:54:31;;;;;;;18.58;10.38;;;;;;;5.42;100.00;101784.78;4987788;28;20049;-87
2020/12/18 02:56:57;;;;;;;17.95;10.43;;;;;;;5.43;100.00;101789.13;4971502;28;20053;-88
2020/12/18 02:59:24;;;;;;;21.55;10.80;;;;;;;5.44;100.00;101784.69;4988642;28;20068;-84
2020/12/18 03:01:49;;;;;;;16.85;10.90;;;;;;;5.40;100.00;101780.50;4986296;28;20069;-88
2020/12/18 03:04:14;;;;;;;21.35;10.85;;;;;;;5.42;100.00;101783.94;4961374;28;20072;-87
2020/12/18 03:06:40;;;;;;;15.80;9.88;;;;;;;5.45;100.00;101777.53;4993373;28;20712;-88
2020/12/18 03:09:05;;;;;;;21.05;10.18;;;;;;;5.43;100.00;101781.13;5011573;28;20450;-87
2020/12/18 03:11:31;;;;;;;16.98;10.68;;;;;;;5.45;100.00;101769.56;4981514;28;20045;-86
2020/12/18 03:13:56;;;;;;;18.98;10.38;;;;;;;5.43;100.00;101769.66;4997461;28;20512;-85
2020/12/18 03:16:21;;;;;;;18.10;10.38;;;;;;;5.41;100.00;101771.59;4992477;28;20041;-86
2020/12/18 03:18:47;;;;;;;17.00;10.18;;;;;;;5.42;100.00;101778.59;4989357;28;20042;-86
2020/12/18 03:21:13;;;;;;;20.52;10.02;;;;;;;5.37;100.00;101778.06;4967402;28;20129;-85
2020/12/18 03:23:40;;;;;;;21.50;11.10;;;;;;;5.38;100.00;101772.66;4988359;28;20057;-86
2020/12/18 03:26:05;;;;;;;18.20;10.40;;;;;;;5.37;100.00;101775.41;4988753;28;20062;-84
2020/12/18 03:28:30;;;;;;;19.50;9.68;;;;;;;5.38;100.00;101777.09;4970469;28;20493;-86
2020/12/18 03:30:56;;;;;;;20.08;10.15;;;;;;;5.40;100.00;101780.50;4986796;28;20038;-87
2020/12/18 03:33:23;;;;;;;18.45;10.48;;;;;;;5.38;100.00;101782.41;5006861;28;20122;-87
2020/12/18 03:35:49;;;;;;;18.40;10.20;;;;;;;5.37;100.00;101776.25;4992896;28;20099;-85
2020/12/18 03:38:14;;;;;;;13.98;8.77;;;;;;;5.36;100.00;101779.88;4986041;28;20035;-84
2020/12/18 03:40:41;;;;;;;16.02;9.98;;;;;;;5.40;100.00;101777.84;4988840;28;20069;-84
2020/12/18 03:43:06;;;;;;;16.75;9.88;;;;;;;5.39;100.00;101778.81;4971868;28;20042;-87
2020/12/18 03:45:32;;;;;;;17.38;9.00;;;;;;;5.41;100.00;101785.75;4986052;28;20102;-86
2020/12/18 03:47:57;;;;;;;17.25;9.52;;;;;;;5.40;100.00;101776.03;5006823;28;20042;-86
2020/12/18 03:50:23;;;;;;;15.27;9.38;;;;;;;5.41;100.00;101775.09;4988256;28;20488;-86
2020/12/18 03:52:48;;;;;;;12.95;8.60;;;;;;;5.42;100.00;101776.78;4987793;28;20072;-86
2020/12/18 03:55:13;;;;;;;20.08;9.75;;;;;;;5.42;100.00;101775.94;4968679;28;20039;-85
2020/12/18 03:57:39;;;;;;;17.67;9.23;;;;;;;5.44;100.00;101776.69;4970623;28;20092;-87
2020/12/18 04:00:06;;;;;;;13.57;8.27;;;;;;;5.45;100.00;101778.38;5000330;28;20096;-86
2020/12/18 04:02:31;;;;;;;19.05;9.43;;;;;;;5.48;100.00;101774.66;5000085;28;20041;-86
2020/12/18 04:04:58;;;;;;;17.08;8.25;;;;;;;5.49;100.00;101774.53;4989806;28;20042;-86
2020/12/18 04:07:25;;;;;;;18.00;8.95;;;;;;;5.48;100.00;101766.69;4969730;28;20386;-86
2020/12/18 04:09:50;;;;;;;17.83;8.45;;;;;;;5.49;100.00;101774.53;4972396;28;20116;-85
2020/12/18 04:12:15;;;;;;;16.30;9.13;;;;;;;5.51;100.00;101777.09;4975069;28;20328;-84
2020/12/18 04:14:41;;;;;;;17.45;8.63;;;;;;;5.50;100.00;101776.25;4972166;28;20042;-85
2020/12/18 04:17:06;;;;;;;15.90;7.97;;;;;;;5.52;100.00;101774.31;4987105;28;20046;-85
2020/12/18 04:19:32;;;;;;;16.73;8.90;;;;;;;5.54;100.00;101777.75;5001146;28;20382;-86
2020/12/18 04:21:58;;;;;;;13.77;7.47;;;;;;;5.54;100.00;101783.06;4972817;28;20038;-87
2020/12/18 04:24:25;;;;;;;17.70;8.23;;;;;;;5.53;100.00;101770.72;5003994;28;20399;-86
2020/12/18 04:26:52;;;;;;;15.40;7.95;;;;;;;5.52;100.00;101769.00;4994888;28;20049;-84
2020/12/18 04:29:18;;;;;;;13.63;8.23;;;;;;;5.54;100.00;101771.56;5003100;28;20092;-85
2020/12/18 04:31:45;;;;;;;18.42;9.18;;;;;;;5.52;100.00;101762.81;4988683;28;20166;-85
2020/12/18 04:34:11;;;;;;;15.55;8.60;;;;;;;5.51;100.00;101767.31;4989391;28;20030;-83
2020/12/18 04:36:37;;;;;;;19.65;8.15;;;;;;;5.49;100.00;101763.88;5002695;28;20061;-85
2020/12/18 04:39:04;;;;;;;15.38;8.75;;;;;;;5.50;100.00;101754.13;5005963;28;20034;-87
2020/12/18 04:41:36;;;;;;;18.98;9.15;;;;;;;5.48;100.00;101751.53;4953209;28;20038;-85
2020/12/18 04:44:02;;;;;;;16.25;7.88;;;;;;;5.48;100.00;101756.03;4989177;28;20088;-86
2020/12/18 04:46:30;;;;;;;16.33;8.43;;;;;;;5.49;100.00;101747.91;5002271;28;20043;-87
2020/12/18 04:48:59;;;;;;;19.15;9.00;;;;;;;5.50;100.00;101749.63;4989244;28;20037;-87
2020/12/18 04:51:27;;;;;;;16.73;8.30;;;;;;;5.48;100.00;101748.88;4994130;28;20085;-86
2020/12/18 04:53:55;;;;;;;14.25;8.05;;;;;;;5.46;100.00;101745.47;4969568;28;20057;-85
2020/12/18 04:56:24;;;;;;;16.10;7.97;;;;;;;5.47;100.00;101747.19;4987106;28;20053;-86
2020/12/18 04:58:55;;;;;;;19.02;8.15;;;;;;;5.44;100.00;101747.41;4998029;28;20038;-87
2020/12/18 05:01:25;;;;;;;14.77;7.40;;;;;;;5.46;100.00;101748.13;4997227;28;20184;-84
2020/12/18 05:03:51;;;;;;;11.35;7.47;;;;;;;5.51;100.00;101745.16;4985829;28;20042;-85
2020/12/18 05:06:17;;;;;;;14.05;6.82;;;;;;;5.56;100.00;101745.69;4970186;28;20042;-86
2020/12/18 05:08:43;;;;;;;15.77;6.65;;;;;;;5.60;100.00;101739.19;5003028;28;20047;-85
2020/12/18 05:11:25;;;;;;;12.70;7.15;;;;;;;5.64;100.00;101736.19;4998963;28;20038;-85
2020/12/18 05:13:53;;;;;;;12.50;6.07;;;;;;;5.72;100.00;101748.09;4993530;28;20049;-87
2020/12/18 05:16:23;;;;;;;13.10;7.35;;;;;;;5.74;100.00;101743.53;4974020;28;20069;-85
2020/12/18 05:18:49;;;;;;;11.02;6.35;;;;;;;5.76;100.00;101745.13;4990014;28;20054;-84
2020/12/18 05:21:16;;;;;;;14.77;6.70;;;;;;;5.79;100.00;101738.72;4998898;28;20044;-85
2020/12/18 05:23:45;;;;;;;14.13;6.45;;;;;;;5.80;100.00;101746.59;4976098;28;20039;-85
2020/12/18 05:26:13;;;;;;;15.77;7.10;;;;;;;5.83;100.00;101734.88;5010177;28;20125;-87
2020/12/18 05:28:43;;;;;;;16.85;6.85;;;;;;;5.84;100.00;101739.22;5009500;28;20053;-86
2020/12/18 05:31:19;;;;;;;11.80;6.30;;;;;;;5.84;100.00;101741.88;4976824;28;20144;-88
2020/12/18 05:33:48;;;;;;;12.85;6.35;;;;;;;5.83;100.00;101742.84;4989261;28;20033;-83
2020/12/18 05:36:14;;;;;;;19.17;6.50;;;;;;;5.80;100.00;101740.41;4992134;28;20033;-84
2020/12/18 05:38:41;;;;;;;15.63;7.00;;;;;;;5.77;100.00;101738.81;4988671;28;20104;-84
2020/12/18 05:41:08;;;;;;;13.43;7.07;;;;;;;5.76;100.00;101749.59;5000573;28;20520;-86
2020/12/18 05:43:37;;;;;;;14.23;6.78;;;;;;;5.72;100.00;101742.78;4985240;28;20053;-84
2020/12/18 05:46:26;;;;;;;15.23;7.50;;;;;;;5.69;100.00;101743.84;5003317;28;20041;-84
2020/12/18 05:49:00;;;;;;;15.57;7.03;;;;;;;5.62;100.00;101743.44;4971645;28;20038;-84
2020/12/18 05:51:33;;;;;;;15.45;7.13;;;;;;;5.57;100.00;101744.72;5005276;28;20576;-84
2020/12/18 05:54:16;;;;;;;15.20;7.20;;;;;;;5.56;100.00;101748.34;4999213;28;20074;-84
2020/12/18 05:56:44;;;;;;;15.55;7.10;;;;;;;5.55;100.00;101746.63;5003145;28;20065;-84
2020/12/18 05:59:15;;;;;;;15.38;7.60;;;;;;;5.52;100.00;101742.38;4989629;28;20088;-85
2020/12/18 06:01:45;;;;;;;16.95;7.18;;;;;;;5.50;100.00;101740.81;5006273;28;20092;-84
2020/12/18 06:04:19;;;;;;;14.60;8.02;;;;;;;5.47;100.00;101739.22;5008664;28;20113;-86
2020/12/18 06:06:47;;;;;;;13.00;6.85;;;;;;;5.43;100.00;101737.69;5003384;28;20042;-84
2020/12/18 06:09:14;;;;;;;14.93;7.55;;;;;;;5.37;100.00;101738.97;5002322;28;20057;-84
2020/12/18 06:11:39;;;;;;;16.00;6.72;;;;;;;5.35;100.00;101740.03;4989713;28;20046;-86
2020/12/18 06:14:09;;;;;;;15.20;6.88;;;;;;;5.34;100.00;101739.19;5003604;28;20326;-84
2020/12/18 06:16:48;;;;;;;13.38;6.95;;;;;;;5.29;100.00;101736.00;4987886;28;20050;-84
2020/12/18 06:19:15;;;;;;;;;;;;;;;5.31;100.00;101727.91;5000246;28;20050;-84
2020/12/18 06:21:48;;;;;;;14.88;7.55;;;;;;;5.20;100.00;101734.81;5009898;28;19917;-85
2020/12/18 06:24:14;;;;;;;15.20;7.47;;;;;;;5.18;100.00;101743.91;5008166;28;20048;-85
2020/12/18 06:26:40;;;;;;;12.48;7.13;;;;;;;5.18;100.00;101739.44;5009450;28;20042;-85
2020/12/18 06:29:05;;;;;;;20.15;8.18;;;;;;;5.20;100.00;101742.81;4997415;28;20235;-85
2020/12/18 06:31:33;;;;;;;14.60;6.93;;;;;;;5.21;100.00;101738.38;4990381;28;20099;-86
2020/12/18 06:34:01;;;;;;;12.40;6.55;;;;;;;5.21;100.00;101733.03;4971698;28;20191;-86
2020/12/18 06:36:44;;;;;;;13.30;6.63;;;;;;;5.20;100.00;101726.00;4995130;28;20049;-86
2020/12/18 06:39:23;;;;;;;11.93;6.82;;;;;;;5.21;100.00;101733.03;4998227;28;20056;-83
2020/12/18 06:42:11;;;;;;;;;;;;;;;5.19;100.00;101726.97;4989018;28;20050;-84
2020/12/18 06:44:40;;;;;;;11.68;6.88;;;;;;;5.10;100.00;101720.47;4994246;28;20429;-84
2020/12/18 06:47:08;;;;;;;;;;;;;;;5.11;100.00;101726.66;5007042;28;20200;-85
2020/12/18 06:49:57;;;;;;;16.33;6.90;;;;;;;5.04;100.00;101723.56;4999920;28;19921;-84
2020/12/18 06:52:44;;;;;;;15.05;7.25;;;;;;;5.08;100.00;101726.84;4999060;28;20552;-85
2020/12/18 06:55:16;;;;;;;15.15;6.70;;;;;;;5.12;100.00;101729.22;5004287;28;20060;-86
2020/12/18 06:57:42;;;;;;;13.20;7.28;;;;;;;5.16;100.00;101728.03;4998184;28;20137;-84
2020/12/18 07:00:30;;;;;;;16.42;6.85;;;;;;;5.17;100.00;101724.41;4982035;28;20440;-83
2020/12/18 07:02:57;;;;;;;17.98;6.80;;;;;;;5.15;100.00;101729.00;4967538;28;20088;-86
2020/12/18 07:05:28;;;;;;;10.95;6.15;;;;;;;5.16;100.00;101725.38;5001351;28;20041;-84
2020/12/18 07:07:57;;;;;;;12.40;6.18;;;;;;;5.20;100.00;101729.50;5004000;28;20133;-86
2020/12/18 07:10:37;;;;;;;15.05;6.35;;;;;;;5.21;100.00;101727.72;4983711;28;20057;-85
2020/12/18 07:13:04;;;;;;;13.32;6.63;;;;;;;5.23;100.00;101722.28;4989170;28;20583;-86
2020/12/18 07:15:46;;;;;;;11.88;6.20;;;;;;;5.20;100.00;101713.53;4994901;28;20461;-84
2020/12/18 07:18:35;;;;;;;12.02;6.18;;;;;;;5.23;100.00;101716.94;4969819;28;20133;-86
2020/12/18 07:21:09;;;;;;;12.00;6.20;;;;;;;5.17;100.00;101723.56;4981419;28;20049;-85
2020/12/18 07:23:40;;;;;;;11.25;6.22;;;;;;;5.19;100.00;101716.31;5002274;28;21120;-84
2020/12/18 07:26:06;;;;;;;11.93;6.50;;;;;;;5.22;100.00;101717.94;4969576;28;20500;-85
2020/12/18 07:28:41;;;;;;;10.05;6.18;;;;;;;5.25;100.00;101712.38;4987852;28;20069;-86
2020/12/18 07:31:22;;;;;;;14.32;5.90;;;;;;;5.24;100.00;101716.88;4985572;28;20034;-84
2020/12/18 07:33:53;;;;;;;17.98;6.88;;;;;;;5.24;100.00;101716.03;4987208;28;20224;-84
2020/12/18 07:36:19;;;;;;;14.98;6.45;;;;;;;5.25;100.00;101723.03;4986589;28;20042;-83
2020/12/18 07:38:45;;;;;;;11.48;5.82;;;;;;;5.29;100.00;101716.53;4979298;28;20057;-85
2020/12/18 07:41:14;;;;;;;13.45;5.90;;;;;;;5.33;100.00;101710.88;4984850;28;20455;-85
2020/12/18 07:43:41;;;;;;;11.95;6.15;;;;;;;5.35;100.00;101713.44;5008117;28;20484;-84
2020/12/18 07:46:09;;;;;;;13.38;5.80;;;;;;;5.31;100.00;101701.31;5004206;28;20069;-85
2020/12/18 07:48:41;;;;;;;12.85;4.55;;;;;;;5.32;100.00;101700.34;5001479;28;20050;-84
2020/12/18 07:51:09;;;;;;;13.38;5.68;;;;;;;5.36;100.00;101699.19;5007074;28;20045;-86
2020/12/18 07:53:42;;;;;;;12.13;4.90;;;;;;;5.37;100.00;101687.56;4984415;28;20077;-84
2020/12/18 07:56:13;;;;;;;9.02;4.93;;;;;;;5.36;100.00;101683.22;4998898;28;20046;-85
2020/12/18 07:59:06;;;;;;;10.18;5.72;;;;;;;5.38;100.00;101681.25;5005573;28;20133;-84
2020/12/18 08:01:35;;;;;;;9.43;5.10;;;;;;;5.39;100.00;101675.84;4992572;28;20490;-85
2020/12/18 08:04:19;;;;;;;8.68;4.32;;;;;;;5.41;100.00;101681.94;4988758;28;20049;-85
2020/12/18 08:06:48;;;;;;;14.18;5.60;;;;;;;5.49;100.00;101683.16;4986905;28;20429;-86
2020/12/18 08:09:16;;;;;;;12.90;5.03;;;;;;;5.55;100.00;101682.72;4970389;28;20061;-85
2020/12/18 08:11:50;;;;;;;12.15;5.07;;;;;;;5.62;100.00;101689.34;4984982;28;20061;-85
2020/12/18 08:14:16;;;;;;;9.57;4.32;;;;;;;5.66;100.00;101680.16;5004568;28;20050;-83
2020/12/18 08:16:41;;;;;;;11.32;5.03;;;;;;;5.71;100.00;101682.50;5002250;28;20504;-85
2020/12/18 08:19:09;;;;;;;10.63;4.68;;;;;;;5.77;100.00;101685.56;5000302;28;20092;-85
2020/12/18 08:21:45;;;;;;;7.25;4.45;;;;;;;5.81;100.00;101679.06;5006003;28;20064;-85
2020/12/18 08:24:30;;;;;;;8.13;4.57;;;;;;;5.84;100.00;101681.50;5009802;28;20360;-84
2020/12/18 08:27:20;;;;;;;10.45;4.25;;;;;;;5.88;100.00;101677.63;4988101;28;20062;-87
2020/12/18 08:29:46;;;;;;;12.63;4.47;;;;;;;5.94;100.00;101675.53;4966268;28;20516;-84
2020/12/18 08:32:27;;;;;;;10.45;4.20;;;;;;;5.98;100.00;101683.16;4982200;28;20112;-84
2020/12/18 08:35:04;;;;;;;11.75;5.20;;;;;;;6.05;100.00;101692.41;4993232;28;20033;-86
2020/12/18 08:37:29;;;;;;;14.50;4.40;;;;;;;6.10;100.00;101694.75;4988088;28;20407;-84
2020/12/18 08:39:55;;;;;;;9.60;5.18;;;;;;;6.15;100.00;101692.56;4988431;28;20041;-84
2020/12/18 08:42:21;;;;;;;11.88;4.72;;;;;;;6.21;100.00;101707.25;4988224;28;20077;-85
2020/12/18 08:44:47;;;;;;;11.32;4.43;;;;;;;6.25;100.00;101706.09;4974086;28;20508;-84
2020/12/18 08:47:24;;;;;;;9.52;4.05;;;;;;;6.27;100.00;101712.13;4977015;28;20038;-85
2020/12/18 08:49:52;;;;;;;11.05;4.28;;;;;;;6.28;100.00;101696.03;4974355;28;20079;-85
2020/12/18 08:52:28;;;;;;;9.70;4.47;;;;;;;6.31;100.00;101709.13;4975488;28;20038;-85
2020/12/18 08:55:07;;;;;;;6.45;3.80;;;;;;;6.33;100.00;101709.88;5008490;28;20064;-85
2020/12/18 08:57:36;;;;;;;13.35;5.13;;;;;;;6.33;100.00;101717.03;4990454;28;20420;-84
2020/12/18 09:00:10;;;;;;;8.27;4.05;;;;;;;6.36;100.00;101724.81;4976404;28;20042;-86
2020/12/18 09:02:42;;;;;;;8.30;4.13;;;;;;;6.38;100.00;101722.84;4989776;28;20057;-87
2020/12/18 09:05:24;;;;;;;12.52;4.68;;;;;;;6.41;100.00;101735.13;4986334;28;20404;-85
2020/12/18 09:08:26;;;;;;;14.60;5.03;;;;;;;6.41;100.00;101724.44;4974209;28;20049;-86
2020/12/18 09:10:59;;;;;;;9.10;4.90;;;;;;;6.39;100.00;101724.56;4913062;29;20510;-85
2020/12/18 09:13:28;;;;;;;11.25;4.80;;;;;;;6.43;100.00;101733.19;4988379;28;20138;-86
2020/12/18 09:16:05;;;;;;;11.82;6.10;;;;;;;6.43;100.00;101736.69;5000101;28;20089;-85
2020/12/18 09:18:35;;;;;;;12.20;4.88;;;;;;;6.48;100.00;101742.56;5001182;28;20399;-85
2020/12/18 09:21:15;;;;;;;18.15;5.10;;;;;;;6.54;100.00;101744.75;4987631;28;20125;-87
2020/12/18 09:23:44;;;;;;;11.80;4.75;;;;;;;6.61;100.00;101739.81;5002953;28;20050;-85
2020/12/18 09:26:10;;;;;;;8.32;4.20;;;;;;;6.69;99.85;101737.41;5009584;28;20038;-85
2020/12/18 09:28:41;;;;;;;12.88;4.88;;;;;;;6.77;99.40;101732.34;4982675;28;20147;-86
2020/12/18 09:31:09;;;;;;;9.00;3.72;;;;;;;6.84;98.94;101727.38;5007633;28;20064;-86
2020/12/18 09:33:37;;;;;;;11.05;4.28;;;;;;;6.91;98.67;101727.78;4985604;28;21132;-85
2020/12/18 09:36:06;;;;;;;8.40;3.72;;;;;;;6.98;98.27;101734.34;5008771;28;20056;-84
2020/12/18 09:38:47;;;;;;;10.82;4.30;;;;;;;7.06;97.93;101737.28;4987548;28;20034;-84
2020/12/18 09:41:15;;;;;;;10.23;3.85;;;;;;;7.13;97.51;101732.31;4997234;28;20041;-86
2020/12/18 09:43:41;;;;;;;10.27;3.97;;;;;;;7.20;97.06;101753.06;4990169;28;20054;-85
2020/12/18 09:46:13;;;;;;;8.55;3.92;;;;;;;7.28;96.61;101741.81;4989006;28;20070;-85
2020/12/18 09:48:43;;;;;;;8.43;4.57;;;;;;;7.35;96.36;101744.84;4984393;28;20054;-86
2020/12/18 09:51:09;;;;;;;7.70;3.80;;;;;;;7.43;95.85;101737.94;5004554;28;20076;-86
2020/12/18 09:53:36;;;;;;;9.23;4.38;;;;;;;7.52;95.57;101747.03;4997926;28;20396;-84
2020/12/18 09:56:02;;;;;;;9.57;4.03;;;;;;;7.58;94.84;101741.19;4991040;28;20180;-84
2020/12/18 09:58:27;;;;;;;8.73;3.97;;;;;;;7.66;95.29;101729.91;4988853;28;20092;-84
2020/12/18 10:00:53;;;;;;;7.65;3.33;;;;;;;7.74;94.32;101730.16;4960580;28;20046;-87
2020/12/18 10:03:18;;;;;;;10.00;3.65;;;;;;;7.77;94.19;101727.25;4988331;28;20060;-85
2020/12/18 10:05:45;;;;;;;10.20;3.92;;;;;;;7.85;94.31;101743.50;4974181;28;20069;-86
2020/12/18 10:08:10;;;;;;;9.63;4.40;;;;;;;7.89;93.75;101736.94;4996900;28;20034;-85
2020/12/18 10:10:37;;;;;;;8.77;3.70;;;;;;;7.95;93.64;101732.06;4987951;28;20111;-85
2020/12/18 10:13:02;;;;;;;8.82;3.70;;;;;;;8.00;93.36;101735.19;5007869;28;20077;-83
2020/12/18 10:15:29;;;;;;;13.15;4.45;;;;;;;8.07;93.18;101739.09;5002687;28;20536;-85
2020/12/18 10:17:55;;;;;;;9.93;3.72;;;;;;;8.13;93.06;101744.78;4990494;28;20046;-86
2020/12/18 10:20:20;;;;;;;8.32;3.58;;;;;;;8.19;93.01;101726.53;5005177;28;20101;-84
2020/12/18 10:22:55;;;;;;;8.43;3.60;;;;;;;8.25;92.77;101726.03;4990254;28;20048;-85
2020/12/18 10:25:21;;;;;;;9.70;3.38;;;;;;;8.29;92.14;101714.97;4988859;28;20440;-84
2020/12/18 10:27:46;;;;;;;10.25;3.63;;;;;;;8.35;92.16;101713.59;4989937;28;20046;-86
2020/12/18 10:30:12;;;;;;;8.35;3.25;;;;;;;8.40;91.82;101711.44;4975208;28;20539;-84
2020/12/18 10:32:40;;;;;;;11.13;3.88;;;;;;;8.46;92.00;101718.94;5006853;28;20046;-84
2020/12/18 10:35:07;;;;;;;10.40;3.63;;;;;;;8.52;91.75;101713.09;4989319;28;20050;-85
2020/12/18 10:37:32;;;;;;;9.00;3.72;;;;;;;8.58;91.03;101711.72;4996603;28;20082;-84
2020/12/18 10:39:59;;;;;;;9.77;4.03;;;;;;;8.64;90.77;101705.00;5000754;28;20073;-84
2020/12/18 10:42:25;;;;;;;6.13;3.30;;;;;;;8.71;90.76;101704.34;5005446;28;20039;-83
2020/12/18 10:44:50;;;;;;;7.13;2.97;;;;;;;8.74;90.14;101696.03;5007050;28;20407;-87
2020/12/18 10:47:18;;;;;;;8.13;3.40;;;;;;;8.80;90.27;101700.91;4974119;28;20505;-84
2020/12/18 10:49:45;;;;;;;11.87;3.20;;;;;;;8.85;89.69;101699.66;5004399;28;20038;-83
2020/12/18 10:52:10;;;;;;;8.38;2.80;;;;;;;8.88;89.53;101694.03;4992610;28;20085;-83
2020/12/18 10:54:36;;;;;;;10.13;3.13;;;;;;;8.92;89.75;101688.28;4977421;28;20137;-85
2020/12/18 10:57:01;;;;;;;9.95;3.30;;;;;;;8.98;89.43;101689.59;4978033;28;20111;-84
2020/12/18 10:59:29;;;;;;;9.32;3.38;;;;;;;9.01;89.21;101697.38;5010498;28;20440;-85
2020/12/18 11:01:55;;;;;;;9.32;3.95;;;;;;;9.04;89.60;101689.06;4962672;28;20038;-85
2020/12/18 11:04:21;;;;;;;8.13;3.13;;;;;;;9.07;88.78;101686.13;4976888;28;20492;-83
2020/12/18 11:06:47;;;;;;;10.18;3.67;;;;;;;9.14;89.29;101681.91;4977659;28;20107;-84
2020/12/18 11:09:12;;;;;;;7.03;3.20;;;;;;;9.15;88.49;101688.13;5010752;28;20393;-84
2020/12/18 11:11:38;;;;;;;9.50;3.00;;;;;;;9.18;88.28;101682.53;4992407;28;20042;-84
2020/12/18 11:14:03;;;;;;;7.70;3.10;;;;;;;9.20;88.46;101692.09;4988767;28;20045;-85
2020/12/18 11:16:29;;;;;;;6.50;3.20;;;;;;;9.26;88.47;101685.34;4973369;28;20046;-85
2020/12/18 11:18:54;;;;;;;9.82;3.28;;;;;;;9.29;87.88;101697.63;4990052;28;20373;-85
2020/12/18 11:21:21;;;;;;;8.85;3.30;;;;;;;9.32;88.03;101700.91;5006325;28;20530;-85
2020/12/18 11:23:47;;;;;;;7.85;3.15;;;;;;;9.33;87.72;101691.03;4986758;28;20042;-85
2020/12/18 11:26:17;;;;;;;11.18;3.20;;;;;;;9.38;87.40;101683.44;4988051;28;20038;-84